Terminal Aerodrome Forecast
Issued by NWS Boston, MA

Home | Current Version | Previous Version | Text Only | Print | Product List | Glossary On
Versions: 1 2 3 4 5 6 7 8 9 10 11 12 13 14 15 16 17 18 19 20 21 22 23 24 25 26 27 28 29 30 31 32 33 34 35 36 37 38 39 40 41 42
806
FTUS41 KBOX 010520
TAFBOS
TAF
KBOS 010520Z 0106/0212 24012KT P6SM VCSH OVC100
     FM011500 34004KT P6SM VCSH BKN050
     FM011700 05004KT P6SM VCSH BKN060
     FM012200 VRB03KT P6SM BKN050
     FM020300 01005KT P6SM SCT070=

USA.gov is the U.S. government's official web portal to all federal, state and local government web resources and services.